createdAt,value
2023-05-12T00:00:17.880Z,100.00
2023-05-12T00:02:47.434Z,100.00
2023-05-12T00:05:14.143Z,100.00
2023-05-12T00:07:40.680Z,100.00
2023-05-12T00:10:07.648Z,100.00
2023-05-12T00:12:34.287Z,100.00
2023-05-12T00:15:01.290Z,100.00
2023-05-12T00:17:28.091Z,100.00
2023-05-12T00:19:54.731Z,100.00
2023-05-12T00:22:21.273Z,100.00
2023-05-12T00:24:50.937Z,100.00
2023-05-12T00:27:20.461Z,100.00
2023-05-12T00:29:49.847Z,100.00
2023-05-12T00:32:18.728Z,100.00
2023-05-12T00:34:45.295Z,100.00
2023-05-12T00:37:11.838Z,100.00
2023-05-12T00:39:38.368Z,100.00
2023-05-12T00:42:05.666Z,100.00
2023-05-12T00:44:32.298Z,100.00
2023-05-12T00:46:59.052Z,100.00
2023-05-12T00:49:28.743Z,100.00
2023-05-12T00:51:58.295Z,100.00
2023-05-12T00:54:28.622Z,100.00
2023-05-12T00:56:55.292Z,100.00
2023-05-12T00:59:21.878Z,100.00
2023-05-12T01:01:52.293Z,100.00
2023-05-12T01:04:21.970Z,100.00
2023-05-12T01:07:24.717Z,100.00
2023-05-12T01:09:57.604Z,100.00
2023-05-12T01:12:25.069Z,100.00
2023-05-12T01:14:53.879Z,100.00
2023-05-12T01:17:23.865Z,100.00
2023-05-12T01:19:58.875Z,100.00
2023-05-12T01:22:26.798Z,100.00
2023-05-12T01:24:59.692Z,100.00
2023-05-12T01:27:27.492Z,100.00
2023-05-12T01:29:57.888Z,100.00
2023-05-12T01:32:24.592Z,100.00
2023-05-12T01:34:51.154Z,100.00
2023-05-12T01:37:18.023Z,100.00
2023-05-12T01:39:45.040Z,100.00
2023-05-12T01:42:11.692Z,100.00
2023-05-12T01:44:38.238Z,100.00
2023-05-12T01:47:04.903Z,100.00
2023-05-12T01:49:31.734Z,100.00
2023-05-12T01:51:58.262Z,100.00
2023-05-12T01:54:24.742Z,100.00
2023-05-12T01:56:54.111Z,100.00
2023-05-12T01:59:23.116Z,100.00
2023-05-12T02:01:49.713Z,100.00
2023-05-12T02:04:16.403Z,100.00
2023-05-12T02:06:42.937Z,100.00
2023-05-12T02:09:09.603Z,100.00
2023-05-12T02:11:36.712Z,100.00
2023-05-12T02:14:03.325Z,100.00
2023-05-12T02:16:29.925Z,100.00
2023-05-12T02:18:56.610Z,100.00
2023-05-12T02:21:26.340Z,100.00
2023-05-12T02:23:53.202Z,100.00
2023-05-12T02:26:19.783Z,100.00
2023-05-12T02:28:46.342Z,100.00
2023-05-12T02:31:12.819Z,100.00
2023-05-12T02:33:39.297Z,100.00
2023-05-12T02:36:06.066Z,100.00
2023-05-12T02:38:32.778Z,100.00
2023-05-12T02:40:59.270Z,100.00
2023-05-12T02:43:25.763Z,100.00
2023-05-12T02:45:52.359Z,100.00
2023-05-12T02:48:19.122Z,100.00
2023-05-12T02:50:45.779Z,100.00
2023-05-12T02:53:12.391Z,100.00
2023-05-12T02:55:39.022Z,100.00
2023-05-12T02:58:05.591Z,100.00
2023-05-12T03:00:32.054Z,100.00
2023-05-12T03:02:58.635Z,100.00
2023-05-12T03:05:25.523Z,100.00
2023-05-12T03:07:52.057Z,100.00
2023-05-12T03:10:19.292Z,100.00
2023-05-12T03:12:46.068Z,100.00
2023-05-12T03:15:12.610Z,100.00
2023-05-12T03:17:39.276Z,100.00
2023-05-12T03:20:06.821Z,100.00
2023-05-12T03:22:33.449Z,100.00
2023-05-12T03:25:00.033Z,100.00
2023-05-12T03:27:29.666Z,100.00
2023-05-12T03:30:05.035Z,100.00
2023-05-12T03:32:31.669Z,100.00
2023-05-12T03:34:58.268Z,100.00
2023-05-12T03:37:24.803Z,100.00
2023-05-12T03:39:51.348Z,100.00
2023-05-12T03:42:17.799Z,100.00
2023-05-12T03:44:44.277Z,100.00
2023-05-12T03:47:10.856Z,100.00
2023-05-12T03:49:37.551Z,100.00
2023-05-12T03:52:04.251Z,100.00
2023-05-12T03:54:30.862Z,100.00
2023-05-12T03:57:00.798Z,100.00
2023-05-12T03:59:30.158Z,100.00
2023-05-12T04:01:58.947Z,100.00
2023-05-12T04:04:25.542Z,100.00
2023-05-12T04:06:52.115Z,100.00
2023-05-12T04:09:18.630Z,100.00
2023-05-12T04:11:45.187Z,100.00
2023-05-12T04:14:11.663Z,100.00
2023-05-12T04:16:38.186Z,100.00
2023-05-12T04:19:05.055Z,100.00
2023-05-12T04:21:33.071Z,100.00
2023-05-12T04:23:59.514Z,100.00
2023-05-12T04:26:26.950Z,100.00
2023-05-12T04:28:53.714Z,100.00
2023-05-12T04:31:20.423Z,100.00
2023-05-12T04:33:48.362Z,100.00
2023-05-12T04:36:15.194Z,100.00
2023-05-12T04:38:41.905Z,100.00
2023-05-12T04:41:09.282Z,100.00
2023-05-12T04:46:05.592Z,100.00
2023-05-12T04:48:32.172Z,100.00
2023-05-12T04:51:02.885Z,100.00
2023-05-12T04:53:31.898Z,100.00
2023-05-12T04:55:58.741Z,100.00
2023-05-12T04:58:25.411Z,100.00
2023-05-12T05:00:53.061Z,100.00
2023-05-12T05:03:19.770Z,100.00
2023-05-12T05:05:46.437Z,100.00
2023-05-12T05:08:12.903Z,100.00
2023-05-12T05:10:39.418Z,100.00
2023-05-12T05:13:05.991Z,100.00
2023-05-12T05:15:32.561Z,100.00
2023-05-12T05:18:01.803Z,100.00
2023-05-12T05:20:29.332Z,100.00
2023-05-12T05:22:56.055Z,100.00
2023-05-12T05:25:22.912Z,100.00
2023-05-12T05:27:49.797Z,100.00
2023-05-12T05:30:16.798Z,100.00
2023-05-12T05:32:43.419Z,100.00
2023-05-12T05:35:10.177Z,100.00
2023-05-12T05:38:08.571Z,100.00
2023-05-12T05:40:45.349Z,100.00
2023-05-12T05:43:18.790Z,100.00
2023-05-12T05:45:50.033Z,100.00
2023-05-12T05:48:16.691Z,100.00
2023-05-12T05:50:43.346Z,100.00
2023-05-12T05:53:09.941Z,100.00
2023-05-12T05:55:36.496Z,100.00
2023-05-12T05:58:06.041Z,100.00
2023-05-12T06:00:34.662Z,100.00
2023-05-12T06:03:01.650Z,100.00
2023-05-12T06:05:29.017Z,100.00
2023-05-12T06:07:55.922Z,100.00
2023-05-12T06:10:22.790Z,100.00
2023-05-12T06:12:50.471Z,100.00
2023-05-12T06:15:17.361Z,100.00
2023-05-12T06:17:44.017Z,100.00
2023-05-12T06:20:11.135Z,100.00
2023-05-12T06:22:38.719Z,100.00
2023-05-12T06:25:05.725Z,100.00
2023-05-12T06:27:34.436Z,100.00
2023-05-12T06:30:00.994Z,100.00
2023-05-12T06:32:27.605Z,100.00
2023-05-12T06:34:54.113Z,100.00
2023-05-12T06:37:20.574Z,100.00
2023-05-12T06:39:47.012Z,100.00
2023-05-12T06:42:13.601Z,100.00
2023-05-12T06:44:42.096Z,100.00
2023-05-12T06:47:09.275Z,100.00
2023-05-12T06:49:38.382Z,100.00
2023-05-12T06:52:07.589Z,100.00
2023-05-12T06:54:36.797Z,100.00
2023-05-12T06:57:06.378Z,100.00
2023-05-12T06:59:35.983Z,100.00
2023-05-12T07:02:05.128Z,100.00
2023-05-12T07:04:37.532Z,100.00
2023-05-12T07:07:06.759Z,100.00
2023-05-12T07:09:36.118Z,100.00
2023-05-12T07:12:04.080Z,100.00
2023-05-12T07:14:30.586Z,100.00
2023-05-12T07:16:57.336Z,100.00
2023-05-12T07:19:23.803Z,100.00
2023-05-12T07:21:50.313Z,100.00
2023-05-12T07:24:16.910Z,100.00
2023-05-12T07:26:44.576Z,100.00
2023-05-12T07:29:13.600Z,100.00
2023-05-12T07:31:40.763Z,100.00
2023-05-12T07:34:07.378Z,100.00
2023-05-12T07:36:37.499Z,100.00
2023-05-12T07:39:04.304Z,100.00
2023-05-12T07:41:32.494Z,100.00
2023-05-12T07:44:01.191Z,100.00
2023-05-12T07:46:27.745Z,100.00
2023-05-12T07:48:54.242Z,100.00
2023-05-12T07:51:22.159Z,100.00
2023-05-12T07:53:48.701Z,100.00
2023-05-12T07:56:15.533Z,100.00
2023-05-12T07:58:42.093Z,100.00
2023-05-12T08:01:10.150Z,100.00
2023-05-12T08:03:36.805Z,100.00
2023-05-12T08:06:05.700Z,100.00
2023-05-12T08:08:32.122Z,100.00
2023-05-12T08:10:58.666Z,100.00
2023-05-12T08:13:26.378Z,100.00
2023-05-12T08:15:52.938Z,100.00
2023-05-12T08:18:19.476Z,100.00
2023-05-12T08:20:46.041Z,100.00
2023-05-12T08:23:12.565Z,100.00
2023-05-12T08:25:40.664Z,100.00
2023-05-12T08:28:07.166Z,100.00
2023-05-12T08:30:37.302Z,100.00
2023-05-12T08:33:06.894Z,100.00
2023-05-12T08:35:36.834Z,100.00
2023-05-12T08:38:05.994Z,100.00
2023-05-12T08:40:41.707Z,100.00
2023-05-12T08:43:44.689Z,100.00
2023-05-12T08:46:12.966Z,100.00
2023-05-12T08:48:40.800Z,100.00
2023-05-12T08:51:13.185Z,100.00
2023-05-12T08:53:41.599Z,100.00
2023-05-12T08:58:42.796Z,100.00
2023-05-12T09:01:11.992Z,100.00
2023-05-12T09:03:39.096Z,100.00
2023-05-12T09:06:07.011Z,100.00
2023-05-12T09:08:40.508Z,100.00
2023-05-12T09:11:11.444Z,100.00
2023-05-12T09:13:53.597Z,100.00
2023-05-12T09:16:27.571Z,100.00
2023-05-12T09:18:56.655Z,100.00
2023-05-12T09:21:24.310Z,100.00
2023-05-12T09:23:53.859Z,100.00
2023-05-12T09:26:23.032Z,100.00
2023-05-12T09:28:51.073Z,100.00
2023-05-12T09:31:23.603Z,100.00
2023-05-12T09:33:51.585Z,100.00
2023-05-12T09:36:23.583Z,100.00
2023-05-12T09:39:00.990Z,100.00
2023-05-12T09:41:27.868Z,100.00
2023-05-12T09:43:55.195Z,100.00
2023-05-12T09:46:22.301Z,100.00
2023-05-12T09:48:49.194Z,100.00
2023-05-12T09:51:19.034Z,100.00
2023-05-12T09:53:47.108Z,100.00
2023-05-12T09:56:14.883Z,100.00
2023-05-12T09:58:49.552Z,100.00
2023-05-12T10:01:23.450Z,100.00
2023-05-12T10:03:55.946Z,100.00
2023-05-12T10:06:34.197Z,100.00
2023-05-12T10:09:15.845Z,100.00
2023-05-12T10:11:44.163Z,100.00
2023-05-12T10:14:11.409Z,100.00
2023-05-12T10:16:41.547Z,100.00
2023-05-12T10:19:12.385Z,100.00
2023-05-12T10:21:46.082Z,100.00
2023-05-12T10:24:18.934Z,100.00
2023-05-12T10:26:45.752Z,100.00
2023-05-12T10:29:14.036Z,100.00
2023-05-12T10:31:40.925Z,100.00
2023-05-12T10:34:16.800Z,100.00
2023-05-12T10:36:46.940Z,100.00
2023-05-12T10:39:15.462Z,100.00
2023-05-12T10:41:42.839Z,100.00
2023-05-12T10:44:12.373Z,100.00
2023-05-12T10:46:42.128Z,100.00
2023-05-12T10:49:10.827Z,100.00
2023-05-12T10:51:39.217Z,99.27
2023-05-12T10:54:11.273Z,100.00
2023-05-12T10:56:39.774Z,100.00
2023-05-12T10:59:21.895Z,100.00
2023-05-12T11:02:03.671Z,100.00
2023-05-12T11:04:54.442Z,95.96
2023-05-12T11:07:24.615Z,93.37
2023-05-12T11:09:58.267Z,93.97
2023-05-12T11:12:28.217Z,100.00
2023-05-12T11:14:55.313Z,100.00
2023-05-12T11:17:22.415Z,100.00
2023-05-12T11:19:50.570Z,100.00
2023-05-12T11:22:20.263Z,100.00
2023-05-12T11:24:48.169Z,100.00
2023-05-12T11:27:16.923Z,100.00
2023-05-12T11:29:45.089Z,100.00
2023-05-12T11:32:12.557Z,100.00
2023-05-12T11:34:42.027Z,100.00
2023-05-12T11:37:09.684Z,100.00
2023-05-12T11:39:36.460Z,100.00
2023-05-12T11:42:13.503Z,100.00
2023-05-12T11:44:50.627Z,100.00
2023-05-12T11:47:19.126Z,100.00
2023-05-12T11:49:50.076Z,100.00
2023-05-12T11:52:17.732Z,100.00
2023-05-12T11:54:52.169Z,100.00
2023-05-12T11:57:29.432Z,100.00
2023-05-12T12:00:00.943Z,100.00
2023-05-12T12:02:28.009Z,100.00
2023-05-12T12:04:55.030Z,100.00
2023-05-12T12:07:32.193Z,93.53
2023-05-12T12:10:10.136Z,90.76
2023-05-12T12:12:41.142Z,93.75
2023-05-12T12:15:10.521Z,94.93
2023-05-12T12:17:40.926Z,97.04
2023-05-12T12:20:11.207Z,100.00
2023-05-12T12:22:41.328Z,100.00
2023-05-12T12:25:11.082Z,100.00
2023-05-12T12:27:39.218Z,100.00
2023-05-12T12:30:08.968Z,100.00
2023-05-12T12:32:35.760Z,100.00
2023-05-12T12:35:04.480Z,100.00
2023-05-12T12:37:32.245Z,100.00
2023-05-12T12:39:59.362Z,100.00
2023-05-12T12:42:26.245Z,100.00
2023-05-12T12:44:53.069Z,100.00
2023-05-12T12:47:20.137Z,100.00
2023-05-12T12:49:46.827Z,100.00
2023-05-12T12:52:13.373Z,100.00
2023-05-12T12:54:39.830Z,100.00
2023-05-12T12:57:08.661Z,100.00
2023-05-12T12:59:35.283Z,100.00
2023-05-12T13:02:02.551Z,100.00
2023-05-12T13:04:29.060Z,100.00
2023-05-12T13:06:55.791Z,100.00
2023-05-12T13:09:22.921Z,100.00
2023-05-12T13:11:50.250Z,100.00
2023-05-12T13:14:16.767Z,100.00
2023-05-12T13:16:52.941Z,100.00
2023-05-12T13:19:19.558Z,100.00
2023-05-12T13:21:46.120Z,100.00
2023-05-12T13:24:12.989Z,100.00
2023-05-12T13:26:39.865Z,100.00
2023-05-12T13:29:10.307Z,100.00
2023-05-12T13:31:39.215Z,100.00
2023-05-12T13:34:05.942Z,100.00
2023-05-12T13:36:34.570Z,100.00
2023-05-12T13:39:01.845Z,100.00
2023-05-12T13:41:28.364Z,97.54
2023-05-12T13:43:54.865Z,100.00
2023-05-12T13:46:21.410Z,100.00
2023-05-12T13:48:47.992Z,100.00
2023-05-12T13:51:14.888Z,100.00
2023-05-12T13:53:42.983Z,100.00
2023-05-12T13:56:12.164Z,99.06
2023-05-12T13:58:41.650Z,95.01
2023-05-12T14:01:11.721Z,94.81
2023-05-12T14:03:42.587Z,96.69
2023-05-12T14:06:12.632Z,97.57
2023-05-12T14:08:42.230Z,98.61
2023-05-12T14:11:10.167Z,100.00
2023-05-12T14:13:39.879Z,100.00
2023-05-12T14:16:09.814Z,100.00
2023-05-12T14:18:40.726Z,100.00
2023-05-12T14:21:11.367Z,100.00
2023-05-12T14:23:40.336Z,100.00
2023-05-12T14:26:06.787Z,100.00
2023-05-12T14:28:33.367Z,100.00
2023-05-12T14:30:59.958Z,100.00
2023-05-12T14:33:27.152Z,100.00
2023-05-12T14:36:05.808Z,100.00
2023-05-12T14:38:34.304Z,100.00
2023-05-12T14:41:00.788Z,100.00
2023-05-12T14:43:27.310Z,100.00
2023-05-12T14:45:56.930Z,100.00
2023-05-12T14:48:26.253Z,100.00
2023-05-12T14:50:54.225Z,100.00
2023-05-12T14:53:21.938Z,100.00
2023-05-12T14:55:52.331Z,100.00
2023-05-12T14:58:21.718Z,100.00
2023-05-12T15:00:48.617Z,98.80
2023-05-12T15:03:15.497Z,97.40
2023-05-12T15:06:01.778Z,100.00
2023-05-12T15:08:28.852Z,100.00
2023-05-12T15:10:55.417Z,100.00
2023-05-12T15:13:22.594Z,100.00
2023-05-12T15:15:50.239Z,100.00
2023-05-12T15:18:18.357Z,100.00
2023-05-12T15:20:45.926Z,100.00
2023-05-12T15:23:15.682Z,100.00
2023-05-12T15:25:45.521Z,100.00
2023-05-12T15:28:15.189Z,100.00
2023-05-12T15:30:44.592Z,100.00
2023-05-12T15:33:11.470Z,99.61
2023-05-12T15:35:39.548Z,100.00
2023-05-12T15:38:05.964Z,100.00
2023-05-12T15:40:32.404Z,100.00
2023-05-12T15:42:58.884Z,100.00
2023-05-12T15:45:25.480Z,100.00
2023-05-12T15:47:52.142Z,100.00
2023-05-12T15:50:22.456Z,100.00
2023-05-12T15:52:49.658Z,100.00
2023-05-12T15:55:16.847Z,100.00
2023-05-12T15:57:46.948Z,100.00
2023-05-12T16:00:17.680Z,100.00
2023-05-12T16:02:45.572Z,100.00
2023-05-12T16:05:14.584Z,100.00
2023-05-12T16:07:45.771Z,100.00
2023-05-12T16:10:13.903Z,100.00
2023-05-12T16:12:40.570Z,100.00
2023-05-12T16:15:07.650Z,100.00
2023-05-12T16:17:34.183Z,100.00
2023-05-12T16:20:01.946Z,100.00
2023-05-12T16:22:28.825Z,100.00
2023-05-12T16:24:58.582Z,100.00
2023-05-12T16:27:25.568Z,100.00
2023-05-12T16:29:53.516Z,100.00
2023-05-12T16:32:20.248Z,100.00
2023-05-12T16:34:47.029Z,100.00
2023-05-12T16:37:18.663Z,100.00
2023-05-12T16:39:50.900Z,100.00
2023-05-12T16:42:17.491Z,100.00
2023-05-12T16:45:02.178Z,100.00
2023-05-12T16:47:29.722Z,100.00
2023-05-12T16:49:58.177Z,100.00
2023-05-12T16:52:25.466Z,100.00
2023-05-12T16:54:54.956Z,100.00
2023-05-12T16:57:24.364Z,100.00
2023-05-12T16:59:51.136Z,100.00
2023-05-12T17:02:17.935Z,100.00
2023-05-12T17:04:47.989Z,100.00
2023-05-12T17:07:18.033Z,100.00
2023-05-12T17:09:45.968Z,100.00
2023-05-12T17:12:18.510Z,100.00
2023-05-12T17:14:59.385Z,100.00
2023-05-12T17:17:36.750Z,100.00
2023-05-12T17:20:04.188Z,100.00
2023-05-12T17:22:32.151Z,100.00
2023-05-12T17:24:58.677Z,100.00
2023-05-12T17:27:27.645Z,100.00
2023-05-12T17:29:54.367Z,100.00
2023-05-12T17:32:20.909Z,100.00
2023-05-12T17:34:51.593Z,100.00
2023-05-12T17:37:18.355Z,100.00
2023-05-12T17:39:47.555Z,100.00
2023-05-12T17:42:16.796Z,100.00
2023-05-12T17:44:43.899Z,100.00
2023-05-12T17:47:14.266Z,100.00
2023-05-12T17:49:42.132Z,100.00
2023-05-12T17:52:08.863Z,100.00
2023-05-12T17:54:35.357Z,100.00
2023-05-12T17:57:03.196Z,100.00
2023-05-12T17:59:29.723Z,100.00
2023-05-12T18:01:56.238Z,100.00
2023-05-12T18:04:23.233Z,100.00
2023-05-12T18:06:50.355Z,100.00
2023-05-12T18:09:20.083Z,100.00
2023-05-12T18:11:49.818Z,100.00
2023-05-12T18:14:20.453Z,100.00
2023-05-12T18:16:49.925Z,100.00
2023-05-12T18:19:19.339Z,100.00
2023-05-12T18:21:48.853Z,100.00
2023-05-12T18:24:19.382Z,100.00
2023-05-12T18:26:47.248Z,100.00
2023-05-12T18:29:13.753Z,100.00
2023-05-12T18:31:41.242Z,100.00
2023-05-12T18:34:07.780Z,100.00
2023-05-12T18:36:34.331Z,100.00
2023-05-12T18:39:00.799Z,100.00
2023-05-12T18:41:27.763Z,100.00
2023-05-12T18:43:54.358Z,100.00
2023-05-12T18:46:20.815Z,100.00
2023-05-12T18:48:49.089Z,100.00
2023-05-12T18:51:15.568Z,100.00
2023-05-12T18:53:42.163Z,100.00
2023-05-12T18:56:08.705Z,100.00
2023-05-12T18:58:35.431Z,100.00
2023-05-12T19:01:02.087Z,100.00
2023-05-12T19:03:29.130Z,100.00
2023-05-12T19:05:55.655Z,100.00
2023-05-12T19:08:22.163Z,100.00
2023-05-12T19:10:51.725Z,100.00
2023-05-12T19:13:22.788Z,100.00
2023-05-12T19:15:52.036Z,100.00
2023-05-12T19:18:21.627Z,100.00
2023-05-12T19:20:51.052Z,100.00
2023-05-12T19:23:18.619Z,100.00
2023-05-12T19:25:45.545Z,100.00
2023-05-12T19:28:12.056Z,100.00
2023-05-12T19:30:38.634Z,100.00
2023-05-12T19:33:06.463Z,100.00
2023-05-12T19:35:34.669Z,100.00
2023-05-12T19:38:01.199Z,100.00
2023-05-12T19:40:28.796Z,100.00
2023-05-12T19:42:56.399Z,100.00
2023-05-12T19:45:23.148Z,100.00
2023-05-12T19:47:52.509Z,100.00
2023-05-12T19:50:22.102Z,100.00
2023-05-12T19:52:52.255Z,100.00
2023-05-12T19:55:22.338Z,100.00
2023-05-12T19:57:52.878Z,100.00
2023-05-12T20:00:22.366Z,100.00
2023-05-12T20:02:52.288Z,100.00
2023-05-12T20:05:21.818Z,100.00
2023-05-12T20:07:51.761Z,100.00
2023-05-12T20:10:20.629Z,100.00
2023-05-12T20:12:49.730Z,100.00
2023-05-12T20:15:16.253Z,100.00
2023-05-12T20:17:42.783Z,100.00
2023-05-12T20:20:11.473Z,100.00
2023-05-12T20:22:38.926Z,100.00
2023-05-12T20:25:05.884Z,100.00
2023-05-12T20:27:33.051Z,100.00
2023-05-12T20:29:59.732Z,100.00
2023-05-12T20:32:26.281Z,100.00
2023-05-12T20:34:52.844Z,100.00
2023-05-12T20:37:22.766Z,100.00
2023-05-12T20:39:50.782Z,100.00
2023-05-12T20:42:17.356Z,100.00
2023-05-12T20:44:45.782Z,100.00
2023-05-12T20:47:16.069Z,100.00
2023-05-12T20:49:42.809Z,100.00
2023-05-12T20:52:17.523Z,100.00
2023-05-12T20:54:44.194Z,100.00
2023-05-12T20:57:10.738Z,100.00
2023-05-12T20:59:37.280Z,100.00
2023-05-12T21:02:03.858Z,100.00
2023-05-12T21:04:30.433Z,100.00
2023-05-12T21:06:57.534Z,100.00
2023-05-12T21:09:24.044Z,100.00
2023-05-12T21:11:53.505Z,100.00
2023-05-12T21:14:22.304Z,100.00
2023-05-12T21:16:48.835Z,100.00
2023-05-12T21:19:15.437Z,100.00
2023-05-12T21:21:49.571Z,100.00
2023-05-12T21:24:41.901Z,100.00
2023-05-12T21:27:08.591Z,100.00
2023-05-12T21:29:35.413Z,100.00
2023-05-12T21:32:02.234Z,100.00
2023-05-12T21:34:28.872Z,100.00
2023-05-12T21:36:55.490Z,100.00
2023-05-12T21:39:25.869Z,100.00
2023-05-12T21:41:55.457Z,100.00
2023-05-12T21:44:24.873Z,100.00
2023-05-12T21:46:52.309Z,100.00
2023-05-12T21:49:19.148Z,100.00
2023-05-12T21:51:45.673Z,100.00
2023-05-12T21:54:12.366Z,100.00
2023-05-12T21:56:38.866Z,100.00
2023-05-12T21:59:05.705Z,100.00
2023-05-12T22:01:32.199Z,100.00
2023-05-12T22:04:05.093Z,100.00
2023-05-12T22:06:33.718Z,100.00
2023-05-12T22:09:00.566Z,100.00
2023-05-12T22:11:27.160Z,100.00
2023-05-12T22:13:57.256Z,100.00
2023-05-12T22:16:38.294Z,100.00
2023-05-12T22:19:08.173Z,100.00
2023-05-12T22:21:34.830Z,100.00
2023-05-12T22:24:01.536Z,100.00
2023-05-12T22:26:28.003Z,100.00
2023-05-12T22:28:57.441Z,100.00
2023-05-12T22:31:27.597Z,100.00
2023-05-12T22:33:58.038Z,100.00
2023-05-12T22:36:27.831Z,100.00
2023-05-12T22:38:58.500Z,100.00
2023-05-12T22:41:28.380Z,100.00
2023-05-12T22:43:58.403Z,100.00
2023-05-12T22:46:28.121Z,100.00
2023-05-12T22:48:58.124Z,100.00
2023-05-12T22:51:26.190Z,100.00
2023-05-12T22:53:52.730Z,100.00
2023-05-12T22:56:19.249Z,100.00
2023-05-12T22:58:46.102Z,100.00
2023-05-12T23:01:12.946Z,100.00
2023-05-12T23:03:39.528Z,100.00
2023-05-12T23:06:06.330Z,100.00
2023-05-12T23:08:32.813Z,100.00
2023-05-12T23:10:59.296Z,100.00
2023-05-12T23:13:26.778Z,100.00
2023-05-12T23:15:53.183Z,100.00
2023-05-12T23:18:19.713Z,100.00
2023-05-12T23:20:46.168Z,100.00
2023-05-12T23:23:12.625Z,100.00
2023-05-12T23:25:39.120Z,100.00
2023-05-12T23:28:06.130Z,100.00
2023-05-12T23:30:32.649Z,100.00
2023-05-12T23:32:59.381Z,100.00
2023-05-12T23:35:30.110Z,100.00
2023-05-12T23:37:56.638Z,100.00
2023-05-12T23:40:23.808Z,100.00
2023-05-12T23:42:50.516Z,100.00
2023-05-12T23:45:17.071Z,100.00
2023-05-12T23:47:43.562Z,100.00
2023-05-12T23:50:10.178Z,100.00
2023-05-12T23:52:36.616Z,100.00
2023-05-12T23:55:03.239Z,100.00
2023-05-12T23:57:32.850Z,100.00
